Time;durP1;ratioP1;P1;durP2;ratioP2;P2;SDS_P1;SDS_P2;PMS_P1;PMS_P2;Temp;Humidity;BMP_temperature;BMP_pressure;BME280_temperature;BME280_humidity;BME280_pressure;Samples;Min_cycle;Max_cycle;Signal;HPM_P1;HPM_P2
2022/12/16 00:00:40;;;;;;;64.93;54.67;;;;;;;4.77;82.84;94767.31;5114382;28;20195;-69
2022/12/16 00:03:07;;;;;;;68.65;56.35;;;;;;;4.78;83.35;94769.72;5114522;28;20203;-69
2022/12/16 00:05:36;;;;;;;71.82;58.30;;;;;;;4.78;82.97;94779.84;5114490;28;20245;-69
2022/12/16 00:08:03;;;;;;;76.43;62.92;;;;;;;4.77;83.16;94779.03;5114315;28;20532;-69
2022/12/16 00:10:51;;;;;;;95.90;83.80;;;;;;;4.74;82.82;94771.50;5114924;28;20208;-69
2022/12/16 00:13:18;;;;;;;135.02;102.75;;;;;;;4.68;82.66;94761.03;5113862;28;20192;-69
2022/12/16 00:15:46;;;;;;;114.40;101.78;;;;;;;4.63;82.39;94769.41;5114396;28;20188;-69
2022/12/16 00:18:13;;;;;;;134.15;103.20;;;;;;;4.63;82.90;94767.47;5114017;28;20221;-69
2022/12/16 00:20:44;;;;;;;162.93;111.78;;;;;;;4.63;83.06;94772.16;5113890;28;20232;-69
2022/12/16 00:23:11;;;;;;;136.95;104.13;;;;;;;4.64;83.16;94763.63;5114088;28;20204;-69
2022/12/16 00:25:38;;;;;;;123.32;97.47;;;;;;;4.66;83.27;94766.03;5114229;28;20187;-69
2022/12/16 00:28:06;;;;;;;130.55;100.95;;;;;;;4.65;83.18;94757.06;5114293;28;20320;-69
2022/12/16 00:30:34;;;;;;;106.40;94.88;;;;;;;4.64;83.33;94768.28;5114131;28;20224;-69
2022/12/16 00:33:01;;;;;;;105.30;93.90;;;;;;;4.64;83.40;94763.63;5114180;28;20191;-69
2022/12/16 00:35:29;;;;;;;104.30;92.95;;;;;;;4.65;83.48;94773.44;5114510;28;20202;-69
2022/12/16 00:37:56;;;;;;;106.32;90.90;;;;;;;4.64;83.32;94769.09;5113848;28;20196;-69
2022/12/16 00:40:22;;;;;;;108.53;93.57;;;;;;;4.66;83.81;94763.31;5113826;28;20196;-68
2022/12/16 00:42:50;;;;;;;102.95;89.65;;;;;;;4.62;83.95;94765.09;5114123;28;20196;-69
2022/12/16 00:45:17;;;;;;;103.70;92.28;;;;;;;4.64;84.03;94757.34;5115536;28;20195;-69
2022/12/16 00:47:45;;;;;;;105.30;93.93;;;;;;;4.64;84.04;94757.34;5117678;28;20204;-68
2022/12/16 00:50:12;;;;;;;105.95;93.45;;;;;;;4.61;84.24;94758.78;5117274;28;20223;-68
2022/12/16 00:52:38;;;;;;;108.13;92.45;;;;;;;4.63;84.28;94758.50;5117441;28;20191;-69
2022/12/16 00:55:06;;;;;;;115.60;96.05;;;;;;;4.63;84.36;94759.28;5117305;28;20643;-69
2022/12/16 00:57:34;;;;;;;110.75;92.68;;;;;;;4.62;84.15;94765.88;5117507;28;20199;-69
2022/12/16 01:00:03;;;;;;;114.43;89.82;;;;;;;4.60;84.47;94762.66;5117361;28;20608;-69
2022/12/16 01:02:30;;;;;;;115.57;90.65;;;;;;;4.63;84.75;94750.28;5117232;28;20238;-69
2022/12/16 01:04:58;;;;;;;108.75;85.78;;;;;;;4.64;84.58;94751.91;5117546;28;20191;-69
2022/12/16 01:07:25;;;;;;;89.82;70.22;;;;;;;4.64;84.93;94757.34;5117045;28;20200;-69
2022/12/16 01:09:52;;;;;;;85.38;65.15;;;;;;;4.61;85.03;94753.34;5117161;28;20215;-69
2022/12/16 01:12:19;;;;;;;81.22;62.40;;;;;;;4.57;85.11;94758.66;5117550;28;20188;-69
2022/12/16 01:14:46;;;;;;;69.18;53.63;;;;;;;4.54;85.25;94755.78;5116851;28;20211;-69
2022/12/16 01:17:13;;;;;;;60.50;48.63;;;;;;;4.54;85.05;94761.25;5117468;28;20196;-69
2022/12/16 01:19:39;;;;;;;59.35;47.05;;;;;;;4.48;85.42;94766.03;5116832;28;20196;-69
2022/12/16 01:22:08;;;;;;;52.47;45.75;;;;;;;4.49;85.55;94764.91;5116687;28;20257;-69
2022/12/16 01:24:35;;;;;;;54.38;44.75;;;;;;;4.44;85.75;94762.34;5117276;28;20196;-68
2022/12/16 01:27:01;;;;;;;50.80;43.10;;;;;;;4.46;86.26;94762.81;5117047;28;20211;-68
2022/12/16 01:29:28;;;;;;;47.30;42.30;;;;;;;4.46;85.92;94742.91;5116983;28;20222;-68
2022/12/16 01:31:55;;;;;;;47.65;42.22;;;;;;;4.46;86.08;94756.56;5116876;28;20257;-68
2022/12/16 01:34:22;;;;;;;47.65;42.00;;;;;;;4.46;86.22;94751.09;5117184;28;20195;-68
2022/12/16 01:36:49;;;;;;;47.45;41.17;;;;;;;4.46;85.95;94735.50;5117066;28;20626;-68
2022/12/16 01:39:17;;;;;;;51.83;44.30;;;;;;;4.49;85.67;94734.06;5116685;28;20206;-68
2022/12/16 01:41:44;;;;;;;49.60;44.22;;;;;;;4.46;85.75;94740.16;5116619;28;20204;-68
2022/12/16 01:44:14;;;;;;;52.33;45.95;;;;;;;4.42;85.97;94748.19;5116650;28;20207;-68
2022/12/16 01:46:41;;;;;;;49.78;44.30;;;;;;;4.44;85.93;94726.06;5117029;28;20195;-68
2022/12/16 01:49:11;;;;;;;51.28;43.97;;;;;;;4.44;86.17;94734.25;5116753;28;20183;-68
2022/12/16 01:51:39;;;;;;;46.65;41.55;;;;;;;4.43;85.87;94730.72;5116338;28;20210;-68
2022/12/16 01:54:09;;;;;;;45.67;40.88;;;;;;;4.43;86.32;94743.53;5116241;28;20192;-68
2022/12/16 01:56:39;;;;;;;42.88;37.65;;;;;;;4.43;86.18;94732.63;5116600;28;20203;-69
2022/12/16 01:59:05;;;;;;;40.90;35.15;;;;;;;4.41;86.02;94738.41;5117113;28;20199;-69
2022/12/16 02:01:32;;;;;;;37.47;33.20;;;;;;;4.42;86.08;94720.09;5115995;28;20252;-69
2022/12/16 02:04:01;;;;;;;34.13;30.40;;;;;;;4.46;85.81;94716.41;5115813;28;20206;-69
2022/12/16 02:06:28;;;;;;;32.92;29.50;;;;;;;4.47;85.57;94719.94;5116977;28;20199;-69
2022/12/16 02:08:57;;;;;;;31.50;28.10;;;;;;;4.48;85.68;94702.44;5116041;28;20227;-69
2022/12/16 02:11:45;;;;;;;33.75;29.63;;;;;;;4.48;85.55;94699.69;5116255;28;20219;-69
2022/12/16 02:14:34;;;;;;;29.88;26.73;;;;;;;4.49;85.62;94699.38;5115760;28;20199;-69
2022/12/16 02:17:06;;;;;;;29.70;26.52;;;;;;;4.52;85.29;94689.72;5106650;28;20211;-69
2022/12/16 02:20:07;;;;;;;29.08;25.95;;;;;;;4.49;84.84;94695.84;5115982;28;20536;-69
2022/12/16 02:22:42;;;;;;;28.33;25.42;;;;;;;4.53;84.72;94713.19;5116315;28;20524;-69
2022/12/16 02:25:38;;;;;;;28.45;25.42;;;;;;;4.54;84.93;94701.94;5115519;28;20688;-69
2022/12/16 02:28:09;;;;;;;29.02;25.95;;;;;;;4.59;84.54;94709.16;5113429;28;20196;-68
2022/12/16 02:30:59;;;;;;;31.58;28.42;;;;;;;4.56;84.45;94702.41;5115809;28;20222;-68
2022/12/16 02:33:49;;;;;;;30.55;27.35;;;;;;;4.58;84.38;94694.72;5115795;28;20196;-69
2022/12/16 02:36:26;;;;;;;29.20;26.27;;;;;;;4.62;84.53;94702.25;5114001;28;20211;-69
2022/12/16 02:38:57;;;;;;;29.27;26.23;;;;;;;4.59;84.43;94709.97;5115757;28;20202;-69
2022/12/16 02:41:30;;;;;;;28.33;25.42;;;;;;;4.56;84.21;94713.34;5115489;28;20202;-69
2022/12/16 02:44:00;;;;;;;27.40;24.60;;;;;;;4.56;84.07;94718.00;5115447;28;20195;-69
2022/12/16 02:46:30;;;;;;;25.92;23.35;;;;;;;4.57;84.23;94722.31;5115705;28;20571;-69
2022/12/16 02:48:57;;;;;;;23.85;21.55;;;;;;;4.56;84.11;94723.47;5115434;28;20192;-69
2022/12/16 02:51:25;;;;;;;21.75;19.75;;;;;;;4.56;83.94;94720.72;5115100;28;20216;-69
2022/12/16 02:53:54;;;;;;;21.05;19.15;;;;;;;4.55;83.76;94749.19;5115317;28;20212;-69
2022/12/16 02:56:37;;;;;;;20.38;18.38;;;;;;;4.57;83.48;94735.97;5115265;28;20196;-69
2022/12/16 02:59:11;;;;;;;20.48;18.60;;;;;;;4.62;83.16;94754.16;5115787;28;20218;-69
2022/12/16 03:01:47;;;;;;;19.98;18.17;;;;;;;4.60;83.29;94757.19;5115234;28;20206;-69
2022/12/16 03:04:17;;;;;;;20.85;18.90;;;;;;;4.61;83.27;94736.16;5115577;28;20195;-69
2022/12/16 03:06:45;;;;;;;22.35;20.27;;;;;;;4.57;83.37;94725.88;5115337;28;20673;-69
2022/12/16 03:09:14;;;;;;;24.90;22.63;;;;;;;4.48;82.63;94716.09;5114588;28;20207;-69
2022/12/16 03:11:42;;;;;;;23.77;21.58;;;;;;;4.39;82.57;94718.81;5115018;28;20215;-69
2022/12/16 03:14:12;;;;;;;22.63;20.63;;;;;;;4.38;82.77;94713.69;5116175;28;20175;-69
2022/12/16 03:16:41;;;;;;;22.67;20.55;;;;;;;4.37;82.59;94701.16;5115459;28;20207;-69
2022/12/16 03:19:10;;;;;;;20.85;19.05;;;;;;;4.33;82.73;94690.88;5114979;28;20196;-69
2022/12/16 03:21:39;;;;;;;21.05;19.02;;;;;;;4.37;82.95;94690.25;5114558;28;20280;-69
2022/12/16 03:24:09;;;;;;;21.58;19.65;;;;;;;4.38;82.93;94713.69;5114876;28;20191;-69
2022/12/16 03:26:40;;;;;;;22.42;20.42;;;;;;;4.34;82.77;94703.41;5114888;28;20200;-69
2022/12/16 03:29:10;;;;;;;27.98;25.27;;;;;;;4.35;82.64;94696.00;5114851;28;20233;-69
2022/12/16 03:31:40;;;;;;;31.63;28.55;;;;;;;4.32;82.73;94694.75;5114680;28;20223;-68
2022/12/16 03:34:10;;;;;;;32.78;29.67;;;;;;;4.32;82.58;94697.47;5114685;28;20252;-69
2022/12/16 03:36:38;;;;;;;32.22;29.02;;;;;;;4.35;83.06;94710.44;5114620;28;20211;-69
2022/12/16 03:39:06;;;;;;;28.27;25.48;;;;;;;4.33;83.05;94722.84;5115591;28;20211;-69
2022/12/16 03:41:34;;;;;;;25.77;23.38;;;;;;;4.33;83.24;94731.03;5114756;28;20253;-68
2022/12/16 03:44:00;;;;;;;23.23;20.95;;;;;;;4.39;82.96;94718.81;5114552;28;20200;-68
2022/12/16 03:46:27;;;;;;;30.52;27.65;;;;;;;4.39;82.74;94737.91;5115628;28;20245;-68
2022/12/16 03:48:56;;;;;;;23.88;21.63;;;;;;;4.41;82.63;94730.22;5114677;28;20188;-68
2022/12/16 03:51:23;;;;;;;24.88;22.58;;;;;;;4.41;82.67;94716.56;5114351;28;20216;-68
2022/12/16 03:53:50;;;;;;;22.77;20.67;;;;;;;4.46;82.55;94729.25;5114558;28;20286;-68
2022/12/16 03:56:16;;;;;;;22.23;20.13;;;;;;;4.43;82.64;94736.19;5114505;28;20209;-68
2022/12/16 03:58:45;;;;;;;18.83;17.23;;;;;;;4.44;82.67;94750.63;5114444;28;20203;-68
2022/12/16 04:01:13;;;;;;;19.27;17.60;;;;;;;4.44;82.58;94756.09;5114386;28;20203;-68
2022/12/16 04:03:40;;;;;;;17.55;16.00;;;;;;;4.46;82.23;94737.44;5114272;28;20230;-68
2022/12/16 04:06:09;;;;;;;17.70;16.10;;;;;;;4.48;82.17;94732.47;5114337;28;20196;-68
2022/12/16 04:08:35;;;;;;;17.60;16.08;;;;;;;4.46;82.01;94729.25;5114458;28;20328;-68
2022/12/16 04:24:52;;;;;;;19.13;17.42;;;;;;;4.45;82.29;94733.13;5118805;28;20600;-69
2022/12/16 04:27:26;;;;;;;20.45;18.65;;;;;;;4.48;82.44;94724.28;5117611;28;20623;-69
